createdAt,value
2022-09-07T04:01:10.743Z,62.29
2022-09-07T04:05:13.326Z,61.06
2022-09-07T04:09:16.208Z,60.86
2022-09-07T04:13:18.733Z,60.82
2022-09-07T04:17:22.640Z,61.13
2022-09-07T04:21:26.810Z,60.92
2022-09-07T04:25:29.372Z,61.43
2022-09-07T04:29:32.014Z,61.30
2022-09-07T04:33:36.144Z,61.47
2022-09-07T04:37:38.635Z,61.34
2022-09-07T04:41:41.155Z,61.34
2022-09-07T04:45:43.724Z,61.90
2022-09-07T04:49:51.164Z,61.46
2022-09-07T04:53:55.898Z,61.55
2022-09-07T04:57:58.433Z,61.80
2022-09-07T05:02:01.063Z,62.58
2022-09-07T05:06:06.128Z,62.42
2022-09-07T05:10:09.467Z,62.74
2022-09-07T05:14:12.206Z,62.41
2022-09-07T05:18:14.750Z,62.49
2022-09-07T05:22:19.284Z,61.45
2022-09-07T05:26:24.611Z,61.79
2022-09-07T05:34:52.884Z,62.30
2022-09-07T05:38:59.383Z,62.05
2022-09-07T05:43:01.912Z,61.95
2022-09-07T05:47:04.600Z,61.07
2022-09-07T05:51:07.427Z,60.64
2022-09-07T05:55:28.816Z,60.08
2022-09-07T05:59:32.786Z,59.59
2022-09-07T06:03:36.933Z,59.27
2022-09-07T06:07:39.845Z,58.42
2022-09-07T06:11:43.754Z,58.22
2022-09-07T06:15:46.330Z,57.71
2022-09-07T06:19:48.916Z,57.19
2022-09-07T06:23:52.561Z,56.18
2022-09-07T06:27:56.461Z,54.94
2022-09-07T06:36:23.045Z,55.67
2022-09-07T06:40:25.771Z,62.31
2022-09-07T06:44:29.671Z,65.40
2022-09-07T06:48:32.767Z,64.14
2022-09-07T06:57:00.230Z,61.88
2022-09-07T07:01:08.311Z,61.68
2022-09-07T07:05:11.017Z,61.08
2022-09-07T07:09:14.453Z,63.51
2022-09-07T07:17:20.098Z,61.12
2022-09-07T07:21:22.723Z,59.64
2022-09-07T07:25:25.267Z,59.19
2022-09-07T07:29:28.426Z,58.90
2022-09-07T07:33:33.206Z,59.57
2022-09-07T07:37:36.599Z,59.20
2022-09-07T07:41:56.444Z,58.32
2022-09-07T07:46:05.409Z,56.81
2022-09-07T07:54:33.897Z,56.32
2022-09-07T07:58:36.923Z,54.25
2022-09-07T08:02:39.548Z,52.79
2022-09-07T08:06:44.604Z,52.30
2022-09-07T08:10:47.722Z,53.35
2022-09-07T08:14:50.387Z,53.07
2022-09-07T08:18:53.571Z,52.14
2022-09-07T08:22:57.387Z,52.26
2022-09-07T08:27:00.618Z,50.99
2022-09-07T08:31:05.916Z,50.61
2022-09-07T08:35:09.082Z,49.87
2022-09-07T08:39:12.907Z,49.89
2022-09-07T08:43:23.597Z,49.65
2022-09-07T08:47:37.395Z,49.80
2022-09-07T08:51:44.018Z,49.97
2022-09-07T08:55:51.849Z,49.06
2022-09-07T09:00:03.954Z,48.23
2022-09-07T09:04:16.640Z,48.59
2022-09-07T09:08:33.340Z,47.80
2022-09-07T09:12:55.165Z,47.97
2022-09-07T09:17:01.175Z,48.34
2022-09-07T09:21:04.106Z,48.60
2022-09-07T09:25:18.932Z,49.69
2022-09-07T09:29:24.043Z,49.50
2022-09-07T09:33:28.818Z,48.99
2022-09-07T09:37:36.551Z,47.56
2022-09-07T09:41:40.180Z,48.15
2022-09-07T09:54:45.872Z,44.36
2022-09-07T10:07:52.828Z,45.66
2022-09-07T10:12:07.541Z,44.84
2022-09-07T10:16:12.431Z,43.55
2022-09-07T10:20:34.785Z,43.25
2022-09-07T10:24:40.477Z,42.75
2022-09-07T10:33:09.061Z,42.33
2022-09-07T10:37:19.344Z,42.73
2022-09-07T10:41:28.894Z,42.60
2022-09-07T10:45:42.412Z,42.10
2022-09-07T10:54:32.282Z,40.99
2022-09-07T10:59:02.781Z,39.98
2022-09-07T11:03:24.955Z,39.37
2022-09-07T11:07:44.279Z,38.65
2022-09-07T11:12:03.874Z,37.88
2022-09-07T11:16:50.519Z,37.17
2022-09-07T11:20:41.230Z,38.33
2022-09-07T11:25:29.041Z,38.62
2022-09-07T11:29:34.671Z,38.14
2022-09-07T11:38:25.381Z,37.08
2022-09-07T11:42:49.056Z,37.02
2022-09-07T11:46:57.272Z,37.37
2022-09-07T11:51:03.215Z,36.61
2022-09-07T11:55:11.331Z,36.95
2022-09-07T11:59:32.487Z,36.14
2022-09-07T12:04:04.736Z,35.98
2022-09-07T12:08:19.092Z,35.81
2022-09-07T12:12:46.999Z,36.23
2022-09-07T12:17:05.512Z,35.74
2022-09-07T12:21:38.667Z,34.98
2022-09-07T12:25:41.297Z,35.44
2022-09-07T12:29:45.419Z,35.43
2022-09-07T12:33:49.204Z,35.39
2022-09-07T12:37:53.624Z,35.92
2022-09-07T12:42:38.178Z,35.91
2022-09-07T12:46:49.968Z,36.05
2022-09-07T12:50:58.962Z,35.90
2022-09-07T12:55:27.089Z,35.17
2022-09-07T12:59:50.023Z,34.03
2022-09-07T13:04:12.658Z,33.40
2022-09-07T13:08:32.335Z,32.78
2022-09-07T13:12:57.416Z,33.34
2022-09-07T13:17:41.568Z,33.37
2022-09-07T13:21:48.663Z,33.87
2022-09-07T13:25:57.522Z,33.42
2022-09-07T13:30:04.014Z,34.36
2022-09-07T13:34:31.087Z,35.01
2022-09-07T13:38:37.342Z,35.24
2022-09-07T13:42:40.178Z,36.61
2022-09-07T13:46:51.254Z,37.19
2022-09-07T13:50:59.933Z,37.88
2022-09-07T13:55:14.171Z,38.41
2022-09-07T13:59:20.376Z,38.68
2022-09-07T14:03:26.678Z,39.87
2022-09-07T14:07:31.207Z,41.42
2022-09-07T14:11:41.873Z,43.30
2022-09-07T14:15:46.756Z,43.75
2022-09-07T14:19:52.396Z,41.27
2022-09-07T14:23:58.011Z,42.29
2022-09-07T14:28:02.334Z,46.51
2022-09-07T14:32:10.624Z,46.92
2022-09-07T14:36:39.323Z,44.13
2022-09-07T14:40:37.795Z,43.46
2022-09-07T14:44:44.871Z,42.60
2022-09-07T14:48:50.626Z,41.35
2022-09-07T14:57:32.265Z,40.58
2022-09-07T15:01:38.839Z,40.59
2022-09-07T15:05:48.171Z,40.25
2022-09-07T15:09:51.984Z,39.22
2022-09-07T15:13:57.805Z,37.98
2022-09-07T15:18:07.757Z,38.18
2022-09-07T15:22:13.512Z,38.08
2022-09-07T15:30:41.626Z,40.29
2022-09-07T15:34:44.439Z,40.62
2022-09-07T15:39:03.240Z,41.30
2022-09-07T15:43:20.068Z,41.73
2022-09-07T15:56:08.233Z,45.20
2022-09-07T16:00:13.799Z,46.58
2022-09-07T16:04:16.553Z,47.81
2022-09-07T16:08:26.436Z,48.87
2022-09-07T16:21:17.850Z,47.18
2022-09-07T16:25:20.421Z,47.21
2022-09-07T16:29:22.780Z,47.67
2022-09-07T16:33:35.975Z,47.75
2022-09-07T16:38:43.630Z,48.84
2022-09-07T16:42:01.928Z,48.78
2022-09-07T16:46:05.638Z,49.27
2022-09-07T16:50:10.119Z,49.42
2022-09-07T16:54:15.684Z,49.81
2022-09-07T17:02:40.834Z,50.64
2022-09-07T17:06:44.503Z,51.18
2022-09-07T17:10:47.117Z,52.11
2022-09-07T17:14:49.464Z,52.79
2022-09-07T17:23:16.824Z,53.53
2022-09-07T17:27:19.366Z,53.85
2022-09-07T17:35:46.078Z,54.62
2022-09-07T17:39:49.963Z,55.43
2022-09-07T17:43:54.039Z,55.47
2022-09-07T17:47:56.546Z,55.75
2022-09-07T17:52:00.869Z,56.15
2022-09-07T17:56:06.472Z,56.76
2022-09-07T18:00:11.648Z,56.83
2022-09-07T18:04:14.736Z,56.89
2022-09-07T18:08:17.353Z,57.00
2022-09-07T18:12:22.496Z,57.83
2022-09-07T18:16:27.654Z,57.93
2022-09-07T18:20:32.875Z,57.98
2022-09-07T18:24:36.885Z,57.94
2022-09-07T18:33:07.586Z,59.21
2022-09-07T18:37:12.029Z,58.40
2022-09-07T18:41:15.722Z,58.75
2022-09-07T18:45:28.769Z,58.95
2022-09-07T18:49:31.447Z,58.79
2022-09-07T18:53:34.990Z,59.70
2022-09-07T18:57:38.218Z,63.54
2022-09-07T19:01:42.184Z,63.29
2022-09-07T19:05:53.398Z,65.58
2022-09-07T19:09:55.881Z,66.76
2022-09-07T19:13:59.503Z,65.77
2022-09-07T19:18:05.574Z,67.01
2022-09-07T19:22:08.258Z,67.36
2022-09-07T19:26:11.590Z,66.98
2022-09-07T19:30:15.437Z,67.25
2022-09-07T19:34:20.145Z,67.25
2022-09-07T19:38:22.683Z,67.06
2022-09-07T19:42:26.256Z,69.00
2022-09-07T19:46:28.758Z,68.70
2022-09-07T19:50:33.646Z,67.16
2022-09-07T19:54:36.335Z,66.85
2022-09-07T19:58:40.647Z,67.38
2022-09-07T20:02:43.206Z,67.36
2022-09-07T20:06:49.489Z,67.46
2022-09-07T20:10:52.978Z,67.15
2022-09-07T20:14:55.628Z,67.09
2022-09-07T20:18:58.524Z,68.46
2022-09-07T20:23:02.651Z,67.90
2022-09-07T20:27:05.528Z,67.91
2022-09-07T20:31:09.664Z,67.36
2022-09-07T20:35:12.218Z,67.02
2022-09-07T20:39:17.122Z,67.94
2022-09-07T20:43:19.824Z,68.97
2022-09-07T20:47:22.366Z,68.83
2022-09-07T20:51:25.022Z,69.03
2022-09-07T20:55:28.928Z,68.88
2022-09-07T20:59:31.402Z,68.46
